Time;durP1;ratioP1;P1;durP2;ratioP2;P2;SDS_P1;SDS_P2;PMS_P1;PMS_P2;Temp;Humidity;BMP_temperature;BMP_pressure;BME280_temperature;BME280_humidity;BME280_pressure;Samples;Min_cycle;Max_cycle;Signal;HPM_P1;HPM_P2
2021/01/07 00:01:28;;;;;;;1999.90;999.90;;;0.10;99.90;;;;;;5088567;28;20593;-49
2021/01/07 00:03:53;;;;;;;1999.90;999.90;;;0.00;99.90;;;;;;5089821;28;21255;-48
2021/01/07 00:06:19;;;;;;;1999.90;999.90;;;0.10;99.90;;;;;;5088759;28;20209;-47
2021/01/07 00:08:45;;;;;;;1999.90;999.90;;;0.10;99.90;;;;;;5093923;28;20981;-47
2021/01/07 00:11:11;;;;;;;1999.90;999.90;;;0.10;99.90;;;;;;5106064;28;20459;-47
2021/01/07 00:13:37;;;;;;;1999.90;999.90;;;0.10;99.90;;;;;;5088708;28;20197;-50
2021/01/07 00:16:04;;;;;;;1999.90;999.90;;;0.10;99.90;;;;;;5089374;28;20175;-49
2021/01/07 00:18:30;;;;;;;1999.90;999.90;;;0.10;99.90;;;;;;5087863;28;20448;-47
2021/01/07 00:20:55;;;;;;;1999.90;999.90;;;0.10;99.90;;;;;;5072695;28;20503;-50
2021/01/07 00:23:21;;;;;;;1999.90;999.90;;;0.00;99.90;;;;;;5089174;28;20450;-47
2021/01/07 00:25:52;;;;;;;1999.90;999.90;;;0.00;99.90;;;;;;5089900;28;20539;-48
2021/01/07 00:28:19;;;;;;;1999.90;999.90;;;0.00;99.90;;;;;;5090465;28;20194;-48
2021/01/07 00:30:46;;;;;;;1999.90;999.90;;;0.10;99.90;;;;;;5089388;28;20462;-49
2021/01/07 00:33:13;;;;;;;1999.90;999.90;;;0.10;99.90;;;;;;5089504;28;20452;-49
2021/01/07 00:35:39;;;;;;;1999.90;999.90;;;0.00;99.90;;;;;;5083450;28;20437;-47
2021/01/07 00:38:05;;;;;;;1999.90;999.90;;;0.10;99.90;;;;;;5087180;28;20983;-48
2021/01/07 00:40:32;;;;;;;1999.90;999.90;;;0.00;99.90;;;;;;5103481;28;20406;-48
2021/01/07 00:42:58;;;;;;;1999.90;999.90;;;-0.10;99.90;;;;;;5103025;28;20509;-51
2021/01/07 00:45:24;;;;;;;1999.90;999.90;;;-0.10;99.90;;;;;;5096430;28;20444;-49
2021/01/07 00:47:50;;;;;;;1999.90;999.90;;;-0.10;99.90;;;;;;5096317;28;20470;-47
2021/01/07 00:50:15;;;;;;;1999.90;999.90;;;0.00;99.90;;;;;;5101086;28;20169;-46
2021/01/07 00:52:41;;;;;;;1999.90;999.90;;;0.00;99.90;;;;;;5088570;28;20215;-47
2021/01/07 00:55:09;;;;;;;1999.90;999.90;;;-0.10;99.90;;;;;;5085718;28;20219;-47
2021/01/07 00:57:34;;;;;;;1999.90;999.90;;;0.00;99.90;;;;;;5085152;28;20562;-48
2021/01/07 06:21:29;;;;;;;1999.90;999.90;;;-1.10;99.90;;;;;;5069439;28;20552;-50
2021/01/07 06:23:58;;;;;;;1999.90;999.90;;;-1.30;99.90;;;;;;5066167;28;20439;-50
2021/01/07 06:26:26;;;;;;;1999.90;999.90;;;-1.20;99.90;;;;;;5068120;28;20451;-50
2021/01/07 06:28:57;;;;;;;1999.90;999.90;;;-1.30;99.90;;;;;;5066704;28;20428;-50
2021/01/07 06:31:38;;;;;;;1999.90;999.90;;;-1.30;99.90;;;;;;5051064;28;20487;-48
2021/01/07 06:34:04;;;;;;;1999.90;999.90;;;-1.30;99.90;;;;;;5055379;28;20951;-50
2021/01/07 06:36:38;;;;;;;1999.90;999.90;;;-1.10;99.90;;;;;;5065460;28;20419;-50
2021/01/07 06:39:05;;;;;;;1999.90;999.90;;;-1.20;99.90;;;;;;5067390;28;20513;-49
2021/01/07 06:41:32;;;;;;;1999.90;999.90;;;-1.20;99.90;;;;;;5053518;28;20435;-50
2021/01/07 06:43:58;;;;;;;1999.90;999.90;;;-1.20;99.90;;;;;;5048850;28;20478;-50
2021/01/07 06:46:36;;;;;;;1999.90;999.90;;;-1.20;99.90;;;;;;5049896;28;20428;-51
2021/01/07 06:49:17;;;;;;;1999.90;999.90;;;-1.20;99.90;;;;;;5047499;28;20433;-49
2021/01/07 06:51:48;;;;;;;1999.90;999.90;;;-1.10;99.90;;;;;;5049158;28;20856;-51
2021/01/07 06:54:15;;;;;;;1999.90;999.90;;;-1.10;99.90;;;;;;5054214;28;20449;-51
2021/01/07 06:56:41;;;;;;;1999.90;999.90;;;-1.10;99.90;;;;;;5059220;28;20429;-50
2021/01/07 06:59:07;;;;;;;1999.90;999.90;;;-1.00;99.90;;;;;;5067856;28;20433;-51
2021/01/07 07:01:33;;;;;;;1999.90;999.90;;;-1.00;99.90;;;;;;5052077;28;20472;-50
2021/01/07 07:04:05;;;;;;;1999.90;999.90;;;-1.00;99.90;;;;;;5052894;28;20539;-50
2021/01/07 07:06:33;;;;;;;1999.90;999.90;;;-1.10;99.90;;;;;;5065616;28;20478;-49
2021/01/07 07:09:14;;;;;;;1999.90;999.90;;;-1.00;99.90;;;;;;5062857;28;20501;-51
2021/01/07 07:11:54;;;;;;;1999.90;999.90;;;-1.00;99.90;;;;;;5060417;28;20420;-51
2021/01/07 07:14:22;;;;;;;1999.90;999.90;;;-1.00;99.90;;;;;;5052008;28;20475;-51
2021/01/07 07:16:49;;;;;;;1999.90;999.90;;;-1.00;99.90;;;;;;5068043;28;20414;-51
2021/01/07 07:19:27;;;;;;;1999.90;999.90;;;-0.90;99.90;;;;;;5055963;28;20428;-50
2021/01/07 07:22:00;;;;;;;1999.90;999.90;;;-0.90;99.90;;;;;;5057479;28;21436;-49
2021/01/07 07:24:45;;;;;;;1999.90;999.90;;;-0.90;99.90;;;;;;5057107;28;20556;-51
2021/01/07 07:27:12;;;;;;;1999.90;999.90;;;-1.00;99.90;;;;;;5048332;28;20433;-51
2021/01/07 07:29:42;;;;;;;1999.90;999.90;;;-1.00;99.90;;;;;;5057054;28;20418;-49
2021/01/07 07:32:27;;;;;;;1999.90;999.90;;;-0.90;99.90;;;;;;5050941;28;20450;-50
2021/01/07 07:34:54;;;;;;;1999.90;999.90;;;-0.90;99.90;;;;;;5046388;28;20514;-51
2021/01/07 07:37:25;;;;;;;1999.90;999.90;;;-0.80;99.90;;;;;;5042754;28;20438;-48
2021/01/07 07:40:00;;;;;;;1999.90;999.90;;;-0.80;99.90;;;;;;5053347;28;20540;-47
2021/01/07 07:42:28;;;;;;;1999.90;999.90;;;-0.90;99.90;;;;;;5038481;28;20429;-48
2021/01/07 07:44:55;;;;;;;1999.90;999.90;;;-0.80;99.90;;;;;;5039609;28;20492;-50
2021/01/07 07:47:22;;;;;;;1999.90;999.90;;;-0.80;99.90;;;;;;5054639;28;20902;-48
2021/01/07 07:49:57;;;;;;;1999.90;999.90;;;-0.90;99.90;;;;;;5046729;28;20500;-47
2021/01/07 07:52:24;;;;;;;1999.90;999.90;;;-0.90;99.90;;;;;;5045526;28;20434;-47
2021/01/07 07:55:03;;;;;;;1999.90;999.90;;;-0.90;99.90;;;;;;5044347;28;20484;-48
2021/01/07 07:57:29;;;;;;;1999.90;999.90;;;-0.90;99.90;;;;;;5049035;28;20496;-49
2021/01/07 08:00:11;;;;;;;1999.90;999.90;;;-0.90;99.90;;;;;;5047384;28;20842;-47
2021/01/07 08:02:37;;;;;;;1999.90;999.90;;;-1.00;99.90;;;;;;5033343;28;20869;-47
2021/01/07 08:05:02;;;;;;;1999.90;999.90;;;-1.00;99.90;;;;;;5034059;28;20431;-48
2021/01/07 08:07:28;;;;;;;1999.90;999.90;;;-0.90;99.90;;;;;;5035959;28;20178;-49
2021/01/07 08:10:07;;;;;;;1999.90;999.90;;;-0.90;99.90;;;;;;5054114;28;20299;-47
2021/01/07 08:12:37;;;;;;;1999.90;999.90;;;-0.90;99.90;;;;;;5046616;28;20185;-49
2021/01/07 08:15:04;;;;;;;1999.90;999.90;;;-1.00;99.90;;;;;;5050647;28;20553;-47
2021/01/07 08:17:29;;;;;;;1999.90;999.90;;;-1.00;99.90;;;;;;5046930;28;20441;-48
2021/01/07 08:19:55;;;;;;;1999.90;999.90;;;-0.90;99.90;;;;;;5041765;28;20466;-47
2021/01/07 08:22:28;;;;;;;1999.90;999.90;;;-0.90;99.90;;;;;;5038351;28;20266;-47
2021/01/07 08:24:57;;;;;;;1999.90;999.90;;;-0.80;99.90;;;;;;5053387;28;20187;-47
2021/01/07 08:27:27;;;;;;;1999.90;999.90;;;-0.80;99.90;;;;;;5051514;28;20785;-47
2021/01/07 08:29:58;;;;;;;1999.90;999.90;;;-0.80;99.90;;;;;;5044712;28;20523;-48
2021/01/07 08:32:33;;;;;;;1999.90;999.90;;;-0.70;99.90;;;;;;5031520;28;20451;-47
2021/01/07 08:35:00;;;;;;;1999.90;999.90;;;-0.60;99.90;;;;;;5034219;28;20568;-49
2021/01/07 08:37:33;;;;;;;1999.90;999.90;;;-0.60;99.90;;;;;;5052470;28;20517;-47
2021/01/07 08:40:04;;;;;;;1999.90;999.90;;;-0.50;99.90;;;;;;5045945;28;20458;-50
2021/01/07 08:42:37;;;;;;;1999.90;999.90;;;-0.50;99.90;;;;;;5047723;28;20445;-47
2021/01/07 08:45:07;;;;;;;1999.90;999.90;;;-0.40;99.90;;;;;;5040476;28;20450;-48
2021/01/07 08:47:34;;;;;;;1999.90;999.90;;;-0.40;99.90;;;;;;5049026;28;20889;-47
2021/01/07 08:50:14;;;;;;;1999.90;999.90;;;-0.40;99.90;;;;;;5044124;28;20434;-48
2021/01/07 08:52:56;;;;;;;1999.90;999.90;;;-0.40;99.90;;;;;;5048400;28;20421;-47
2021/01/07 08:55:44;;;;;;;1999.90;999.90;;;-0.30;99.90;;;;;;5047749;28;20457;-48
2021/01/07 08:58:10;;;;;;;1999.90;999.90;;;-0.40;99.90;;;;;;5043436;28;20440;-47
2021/01/07 09:00:36;;;;;;;1999.90;999.90;;;-0.30;99.90;;;;;;5044116;28;20449;-47
2021/01/07 09:03:02;;;;;;;1999.90;999.90;;;-0.40;99.90;;;;;;5038225;28;20540;-49
2021/01/07 09:05:29;;;;;;;1999.90;999.90;;;-0.50;99.90;;;;;;5046456;28;20179;-49
2021/01/07 09:08:24;;;;;;;1999.90;999.90;;;-0.50;99.90;;;;;;5032620;28;20419;-48
2021/01/07 09:10:49;;;;;;;1999.90;999.90;;;-0.50;99.90;;;;;;5044702;28;20540;-49
2021/01/07 09:13:19;;;;;;;1999.90;999.90;;;-0.50;99.90;;;;;;5042903;28;20518;-47
2021/01/07 09:15:45;;;;;;;1999.90;999.90;;;-0.40;99.90;;;;;;5035238;28;20179;-47
2021/01/07 09:18:10;;;;;;;1999.90;999.90;;;-0.50;99.90;;;;;;5040069;28;20445;-48
2021/01/07 09:20:36;;;;;;;1999.90;999.90;;;-0.50;99.90;;;;;;5052281;28;20470;-49
2021/01/07 15:27:34;;;;;;;1999.90;999.90;;;-0.60;99.90;;;;;;5052672;28;20591;-49
2021/01/07 15:30:26;;;;;;;1999.90;999.90;;;-0.70;99.90;;;;;;5062460;28;20650;-48
2021/01/07 15:32:59;;;;;;;1999.90;999.90;;;-0.70;99.90;;;;;;5059022;28;20419;-47
2021/01/07 15:35:31;;;;;;;1999.90;999.90;;;-0.70;99.90;;;;;;5046164;28;20827;-50
2021/01/07 15:38:45;;;;;;;1999.90;999.90;;;-0.70;99.90;;;;;;5046861;28;20432;-48
2021/01/07 15:41:24;;;;;;;1999.90;999.90;;;-0.70;99.90;;;;;;5049519;28;20434;-49
2021/01/07 15:44:01;;;;;;;1999.90;999.90;;;-0.70;99.90;;;;;;5049246;28;20445;-49
2021/01/07 15:46:57;;;;;;;1999.90;999.90;;;-0.70;99.90;;;;;;5053812;28;20451;-48
2021/01/07 15:49:32;;;;;;;1999.90;999.90;;;-0.70;99.90;;;;;;5054939;28;20412;-47
2021/01/07 15:52:31;;;;;;;1999.90;999.90;;;-0.80;99.90;;;;;;5058651;28;20423;-48
2021/01/07 15:55:06;;;;;;;1999.90;999.90;;;-0.90;99.90;;;;;;5056057;28;20432;-48
2021/01/07 15:58:03;;;;;;;1999.90;999.90;;;-0.90;99.90;;;;;;5054148;28;20412;-51
2021/01/07 16:00:38;;;;;;;1999.90;999.90;;;-0.90;99.90;;;;;;5053826;28;20425;-50
2021/01/07 16:03:20;;;;;;;1999.90;999.90;;;-0.80;99.90;;;;;;5053835;28;20405;-49
2021/01/07 16:05:54;;;;;;;1999.90;999.90;;;-0.80;99.90;;;;;;5050978;28;20466;-47
2021/01/07 16:08:19;;;;;;;1999.90;999.90;;;-0.80;99.90;;;;;;5052493;28;21005;-47
2021/01/07 16:10:47;;;;;;;1999.90;999.90;;;-0.90;99.90;;;;;;5055789;28;20419;-48
2021/01/07 16:13:13;;;;;;;1999.90;999.90;;;-0.80;99.90;;;;;;5052838;28;20634;-48
2021/01/07 16:15:39;;;;;;;1999.90;999.90;;;-0.80;99.90;;;;;;5048560;28;20463;-52
2021/01/07 16:18:10;;;;;;;1999.90;999.90;;;-0.80;99.90;;;;;;5051044;28;20514;-48
2021/01/07 16:20:35;;;;;;;1999.90;999.90;;;-0.80;99.90;;;;;;5055658;28;20463;-49
2021/01/07 16:23:07;;;;;;;1999.90;999.90;;;-0.80;99.90;;;;;;5056610;28;20448;-48
2021/01/07 16:25:53;;;;;;;1999.90;999.90;;;-0.80;99.90;;;;;;5051217;28;20219;-48
2021/01/07 16:28:19;;;;;;;1999.90;999.90;;;-0.80;99.90;;;;;;5061336;28;20528;-49
2021/01/07 16:30:48;;;;;;;1999.90;999.90;;;-0.70;99.90;;;;;;5062353;28;20471;-49
2021/01/07 16:33:13;;;;;;;1999.90;999.90;;;-0.80;99.90;;;;;;5046536;28;20906;-48
2021/01/07 16:35:39;;;;;;;1999.90;999.90;;;-0.80;99.90;;;;;;5047450;28;20436;-50
2021/01/07 16:38:06;;;;;;;1999.90;999.90;;;-0.80;99.90;;;;;;5056375;28;20216;-48
2021/01/07 16:40:35;;;;;;;1999.90;999.90;;;-0.80;99.90;;;;;;5049376;28;20227;-48
2021/01/07 16:43:02;;;;;;;1999.90;999.90;;;-0.80;99.90;;;;;;5048980;28;20421;-50
2021/01/07 16:45:29;;;;;;;1999.90;999.90;;;-0.80;99.90;;;;;;5049599;28;20468;-48
2021/01/07 16:47:56;;;;;;;1999.90;999.90;;;-0.80;99.90;;;;;;5049001;28;20410;-49
2021/01/07 16:50:22;;;;;;;1999.90;999.90;;;-0.80;99.90;;;;;;5047853;28;20441;-49
2021/01/07 16:52:51;;;;;;;1999.90;999.90;;;-0.90;99.90;;;;;;5050552;28;20464;-48
2021/01/07 16:55:17;;;;;;;1999.90;999.90;;;-0.90;99.90;;;;;;5048926;28;20984;-48
2021/01/07 16:57:48;;;;;;;1999.90;999.90;;;-0.80;99.90;;;;;;5051978;28;20445;-48
2021/01/07 17:00:15;;;;;;;1999.90;999.90;;;-0.80;99.90;;;;;;5049860;28;20482;-47
2021/01/07 17:02:41;;;;;;;1999.90;999.90;;;-0.80;99.90;;;;;;5051680;28;20523;-50
2021/01/07 17:05:07;;;;;;;1999.90;999.90;;;-0.80;99.90;;;;;;5047859;28;20588;-50
2021/01/07 17:07:33;;;;;;;1999.90;999.90;;;-0.90;99.90;;;;;;5049463;28;20274;-54
2021/01/07 17:09:59;;;;;;;1999.90;999.90;;;-0.90;99.90;;;;;;5044404;28;20493;-50
2021/01/07 17:12:25;;;;;;;1999.90;999.90;;;-0.90;99.90;;;;;;5039064;28;20414;-48
2021/01/07 17:14:51;;;;;;;1999.90;999.90;;;-0.90;99.90;;;;;;5043530;28;20460;-50
2021/01/07 17:17:16;;;;;;;1999.90;999.90;;;-1.00;99.90;;;;;;5042500;28;20587;-48
2021/01/07 17:19:42;;;;;;;1999.90;999.90;;;-1.00;99.90;;;;;;5039339;28;20191;-47
2021/01/07 17:22:08;;;;;;;1999.90;999.90;;;-0.90;99.90;;;;;;5039465;28;20196;-47
2021/01/07 17:24:35;;;;;;;1999.90;999.90;;;-1.00;99.90;;;;;;5045158;28;20222;-48
2021/01/07 17:27:06;;;;;;;1999.90;999.90;;;-1.00;99.90;;;;;;5046581;28;21087;-47
2021/01/07 17:29:32;;;;;;;1999.90;999.90;;;-1.00;99.90;;;;;;5049399;28;20441;-48
2021/01/07 17:31:58;;;;;;;1999.90;999.90;;;-1.00;99.90;;;;;;5046335;28;20461;-48
2021/01/07 17:34:25;;;;;;;1999.90;999.90;;;-1.00;99.90;;;;;;5039482;28;20489;-47
2021/01/07 17:36:51;;;;;;;1999.90;999.90;;;-1.00;99.90;;;;;;5040888;28;20466;-47
2021/01/07 17:39:17;;;;;;;1999.90;999.90;;;-0.90;99.90;;;;;;5039043;28;20461;-48
2021/01/07 17:41:42;;;;;;;1999.90;999.90;;;-0.90;99.90;;;;;;5049645;28;21031;-48
2021/01/07 17:44:08;;;;;;;1999.90;999.90;;;-0.90;99.90;;;;;;5039902;28;20680;-49
2021/01/07 17:46:34;;;;;;;1999.90;999.90;;;-0.90;99.90;;;;;;5041485;28;20732;-50
2021/01/07 17:49:00;;;;;;;1999.90;999.90;;;-0.90;99.90;;;;;;5039563;28;20442;-47
2021/01/07 17:51:25;;;;;;;1999.90;999.90;;;-0.90;99.90;;;;;;5037647;28;20261;-47
2021/01/07 17:53:51;;;;;;;1999.90;999.90;;;-0.90;99.90;;;;;;5046862;28;20201;-48
2021/01/07 17:56:18;;;;;;;1999.90;999.90;;;-0.90;99.90;;;;;;5050180;28;20639;-50
2021/01/07 17:58:48;;;;;;;1999.90;999.90;;;-0.90;99.90;;;;;;5044837;28;20328;-48
2021/01/07 18:01:14;;;;;;;1999.90;999.90;;;-1.00;99.90;;;;;;5043949;28;20433;-50
2021/01/07 18:03:40;;;;;;;1999.90;999.90;;;-1.00;99.90;;;;;;5045529;28;20443;-47
2021/01/07 18:06:06;;;;;;;1999.90;999.90;;;-1.00;99.90;;;;;;5038296;28;20217;-47
2021/01/07 18:08:32;;;;;;;1999.90;999.90;;;-1.00;99.90;;;;;;5044122;28;20683;-47
2021/01/07 18:10:57;;;;;;;1999.90;999.90;;;-1.10;99.90;;;;;;5049584;28;20414;-49
2021/01/07 18:13:23;;;;;;;1999.90;999.90;;;-1.00;99.90;;;;;;5044440;28;20273;-47
2021/01/07 18:15:48;;;;;;;1999.90;999.90;;;-1.00;99.90;;;;;;5050917;28;20182;-47
2021/01/07 18:18:14;;;;;;;1999.90;999.90;;;-1.00;99.90;;;;;;5042828;28;20659;-47
2021/01/07 18:20:40;;;;;;;1999.90;999.90;;;-1.00;99.90;;;;;;5045685;28;20194;-48
2021/01/07 18:23:06;;;;;;;1999.90;999.90;;;-1.00;99.90;;;;;;5041513;28;20195;-50
2021/01/07 18:25:33;;;;;;;1999.90;999.90;;;-1.00;99.90;;;;;;5048426;28;20221;-47
2021/01/07 18:27:59;;;;;;;1999.90;999.90;;;-1.00;99.90;;;;;;5051324;28;20188;-46
2021/01/07 18:30:25;;;;;;;1999.90;999.90;;;-1.10;99.90;;;;;;5040613;28;20448;-48
2021/01/07 18:32:51;;;;;;;1999.90;999.90;;;-1.00;99.90;;;;;;5041429;28;20474;-48
2021/01/07 18:35:17;;;;;;;1999.90;999.90;;;-1.00;99.90;;;;;;5038075;28;20964;-49
2021/01/07 18:37:43;;;;;;;1999.90;999.90;;;-1.10;99.90;;;;;;5039889;28;20265;-48
2021/01/07 18:40:09;;;;;;;1999.90;999.90;;;-1.10;99.90;;;;;;5045280;28;20536;-48
2021/01/07 18:42:35;;;;;;;1999.90;999.90;;;-1.10;99.90;;;;;;5047393;28;20808;-48
2021/01/07 18:45:01;;;;;;;1999.90;999.90;;;-1.00;99.90;;;;;;5035441;28;20456;-49
2021/01/07 18:47:26;;;;;;;1999.90;999.90;;;-1.00;99.90;;;;;;5050275;28;20205;-50
2021/01/07 18:49:52;;;;;;;1999.90;999.90;;;-1.10;99.90;;;;;;5043163;28;20459;-47
2021/01/07 18:52:22;;;;;;;1999.90;999.90;;;-1.10;99.90;;;;;;5050661;28;20193;-48
2021/01/07 18:54:48;;;;;;;1999.90;999.90;;;-1.10;99.90;;;;;;5039979;28;20207;-49
2021/01/07 18:57:14;;;;;;;1999.90;999.90;;;-1.10;99.90;;;;;;5040448;28;20449;-48
2021/01/07 18:59:39;;;;;;;1999.90;999.90;;;-1.10;99.90;;;;;;5042602;28;20948;-48
2021/01/07 19:02:09;;;;;;;1999.90;999.90;;;-1.00;99.90;;;;;;5030827;28;20195;-50
2021/01/07 19:04:35;;;;;;;1999.90;999.90;;;-1.10;99.90;;;;;;5032770;28;20223;-47
2021/01/07 19:07:02;;;;;;;1999.90;999.90;;;-1.10;99.90;;;;;;5050465;28;20464;-48
2021/01/07 19:09:27;;;;;;;1999.90;999.90;;;-1.20;99.90;;;;;;5061232;28;20834;-49
2021/01/07 19:11:53;;;;;;;1999.90;999.90;;;-1.20;99.90;;;;;;5055211;28;20508;-46
2021/01/07 19:14:20;;;;;;;1999.90;999.90;;;-1.10;99.90;;;;;;5047990;28;20212;-47
2021/01/07 19:16:45;;;;;;;1999.90;999.90;;;-1.20;99.90;;;;;;5053479;28;20209;-48
2021/01/07 19:19:11;;;;;;;1999.90;999.90;;;-1.20;99.90;;;;;;5057250;28;20781;-48
2021/01/07 19:21:38;;;;;;;1999.90;999.90;;;-1.10;99.90;;;;;;5045971;28;20448;-48
2021/01/07 19:24:04;;;;;;;1999.90;999.90;;;-1.00;99.90;;;;;;5043077;28;20244;-47
2021/01/07 19:26:30;;;;;;;1999.90;999.90;;;-1.10;99.90;;;;;;5046617;28;20498;-48
2021/01/07 19:28:56;;;;;;;1999.90;999.90;;;-1.10;99.90;;;;;;5042599;28;20441;-47
2021/01/07 19:31:21;;;;;;;1999.90;999.90;;;-1.10;99.90;;;;;;5039281;28;20195;-47
2021/01/07 19:33:47;;;;;;;1999.90;999.90;;;-1.10;99.90;;;;;;5043116;28;20212;-48
2021/01/07 19:36:13;;;;;;;1999.90;999.90;;;-1.10;99.90;;;;;;5031984;28;20191;-48
2021/01/07 19:38:40;;;;;;;1999.90;999.90;;;-1.10;99.90;;;;;;5037173;28;20195;-47
2021/01/07 19:41:06;;;;;;;1999.90;999.90;;;-1.20;99.90;;;;;;5036216;28;20449;-48
2021/01/07 19:43:32;;;;;;;1999.90;999.90;;;-1.10;99.90;;;;;;5036820;28;20562;-48
2021/01/07 19:45:59;;;;;;;1999.90;999.90;;;-1.20;99.90;;;;;;5043989;28;20545;-48
2021/01/07 19:48:26;;;;;;;1999.90;999.90;;;-1.20;99.90;;;;;;5039810;28;20463;-47
2021/01/07 19:50:52;;;;;;;1999.90;999.90;;;-1.10;99.90;;;;;;5039464;28;20501;-48
2021/01/07 19:53:18;;;;;;;1999.90;999.90;;;-1.10;99.90;;;;;;5035220;28;20502;-49
2021/01/07 19:55:44;;;;;;;1999.90;999.90;;;-1.10;99.90;;;;;;5025471;28;20937;-51
2021/01/07 19:58:10;;;;;;;1999.90;999.90;;;-1.20;99.90;;;;;;5027215;28;20445;-49
2021/01/07 20:00:35;;;;;;;1999.90;999.90;;;-1.10;99.90;;;;;;5025975;28;20301;-49
2021/01/07 20:03:01;;;;;;;1999.90;999.90;;;-1.10;99.90;;;;;;5029410;28;20195;-48
2021/01/07 20:05:27;;;;;;;1999.90;999.90;;;-1.10;99.90;;;;;;5022385;28;20211;-49
2021/01/07 20:07:53;;;;;;;1999.90;999.90;;;-1.10;99.90;;;;;;5024661;28;20441;-54
2021/01/07 20:10:21;;;;;;;1999.90;999.90;;;-1.10;99.90;;;;;;5027559;28;20188;-50
2021/01/07 20:12:56;;;;;;;1999.90;999.90;;;-1.00;99.90;;;;;;5026913;28;20217;-48
2021/01/07 20:15:24;;;;;;;1999.90;999.90;;;-1.00;99.90;;;;;;5032502;28;20502;-48
2021/01/07 20:17:49;;;;;;;1999.90;999.90;;;-1.00;99.90;;;;;;5034851;28;20444;-49
2021/01/07 20:20:15;;;;;;;1999.90;999.90;;;-1.00;99.90;;;;;;5034900;28;20432;-48
2021/01/07 20:22:42;;;;;;;1999.90;999.90;;;-1.00;99.90;;;;;;5035490;28;20272;-50
2021/01/07 20:25:16;;;;;;;1999.90;999.90;;;-1.00;99.90;;;;;;5030707;28;21102;-48
2021/01/07 20:27:43;;;;;;;1999.90;999.90;;;-1.00;99.90;;;;;;5036310;28;20443;-48
2021/01/07 20:30:10;;;;;;;1999.90;999.90;;;-1.10;99.90;;;;;;5037035;28;21114;-49
2021/01/07 20:32:36;;;;;;;1999.90;999.90;;;-1.00;99.90;;;;;;5028703;28;20446;-48
2021/01/07 20:35:04;;;;;;;1999.90;999.90;;;-1.00;99.90;;;;;;5029162;28;20467;-48
2021/01/07 20:37:30;;;;;;;1999.90;999.90;;;-0.90;99.90;;;;;;5024573;28;20460;-49
2021/01/07 20:39:56;;;;;;;1999.90;999.90;;;-0.90;99.90;;;;;;5030837;28;20450;-50
2021/01/07 20:42:22;;;;;;;1999.90;999.90;;;-1.00;99.90;;;;;;5028060;28;20190;-50
2021/01/07 20:44:48;;;;;;;1999.90;999.90;;;-1.00;99.90;;;;;;5026822;28;20464;-49
2021/01/07 20:47:16;;;;;;;1999.90;999.90;;;-1.00;99.90;;;;;;5030690;28;20218;-51
2021/01/07 20:49:42;;;;;;;1999.90;999.90;;;-1.00;99.90;;;;;;5023573;28;20201;-50
2021/01/07 20:52:08;;;;;;;1999.90;999.90;;;-0.90;99.90;;;;;;5028069;28;20451;-49
2021/01/07 20:54:34;;;;;;;1999.90;999.90;;;-1.00;99.90;;;;;;5031508;28;20564;-50
2021/01/07 20:57:02;;;;;;;1999.90;999.90;;;-1.00;99.90;;;;;;5030494;28;20484;-50
2021/01/07 20:59:28;;;;;;;1999.90;999.90;;;-0.90;99.90;;;;;;5027844;28;20752;-50
2021/01/07 21:01:55;;;;;;;1999.90;999.90;;;-1.00;99.90;;;;;;5031998;28;20860;-50
2021/01/07 21:04:20;;;;;;;1999.90;999.90;;;-1.00;99.90;;;;;;5027515;28;20465;-49
2021/01/07 21:06:50;;;;;;;1999.90;999.90;;;-1.00;99.90;;;;;;5028378;28;20469;-51
2021/01/07 21:09:16;;;;;;;1999.90;999.90;;;-0.90;99.90;;;;;;5027152;28;20186;-51
2021/01/07 21:11:42;;;;;;;1999.90;999.90;;;-0.90;99.90;;;;;;5029215;28;20443;-51
2021/01/07 21:14:08;;;;;;;1999.90;999.90;;;-0.90;99.90;;;;;;5032740;28;20464;-48
2021/01/07 21:16:34;;;;;;;1999.90;999.90;;;-0.90;99.90;;;;;;5035283;28;20448;-49
2021/01/07 21:19:00;;;;;;;1999.90;999.90;;;-0.90;99.90;;;;;;5031626;28;20491;-48
2021/01/07 21:21:26;;;;;;;1999.90;999.90;;;-0.90;99.90;;;;;;5030350;28;21922;-48
2021/01/07 21:23:52;;;;;;;1999.90;999.90;;;-0.80;99.90;;;;;;5030978;28;20751;-48
2021/01/07 21:26:18;;;;;;;1999.90;999.90;;;-0.90;99.90;;;;;;5026000;28;20264;-49
2021/01/07 21:28:43;;;;;;;1999.90;999.90;;;-0.90;99.90;;;;;;5027828;28;20695;-51
2021/01/07 21:31:13;;;;;;;1999.90;999.90;;;-0.90;99.90;;;;;;5028685;28;20444;-50
2021/01/07 21:33:38;;;;;;;1999.90;999.90;;;-0.90;99.90;;;;;;5030203;28;20704;-48
2021/01/07 21:36:13;;;;;;;1999.90;999.90;;;-0.90;99.90;;;;;;5023954;28;20540;-48
2021/01/07 21:38:39;;;;;;;1999.90;999.90;;;-0.90;99.90;;;;;;5024934;28;20276;-49
2021/01/07 21:41:04;;;;;;;1999.90;999.90;;;-0.90;99.90;;;;;;5025596;28;20445;-48
2021/01/07 21:43:30;;;;;;;1999.90;999.90;;;-0.90;99.90;;;;;;5025157;28;20211;-48
2021/01/07 21:45:56;;;;;;;1999.90;999.90;;;-0.90;99.90;;;;;;5024849;28;20573;-49
2021/01/07 21:48:22;;;;;;;1999.90;999.90;;;-0.90;99.90;;;;;;5025755;28;21200;-51
2021/01/07 21:50:47;;;;;;;1999.90;999.90;;;-0.90;99.90;;;;;;5027551;28;20937;-50
2021/01/07 21:53:13;;;;;;;1999.90;999.90;;;-0.80;99.90;;;;;;5026685;28;20540;-48
2021/01/07 21:55:39;;;;;;;1999.90;999.90;;;-0.80;99.90;;;;;;5026813;28;20244;-51
2021/01/07 21:58:04;;;;;;;1999.90;999.90;;;-0.80;99.90;;;;;;5025004;28;20238;-51
2021/01/07 22:00:30;;;;;;;1999.90;999.90;;;-0.80;99.90;;;;;;5025980;28;20190;-49
2021/01/07 22:02:56;;;;;;;1999.90;999.90;;;-0.70;99.90;;;;;;5026659;28;20186;-52
2021/01/07 22:05:22;;;;;;;1999.90;999.90;;;-0.70;99.90;;;;;;5023645;28;20222;-49
2021/01/07 22:07:47;;;;;;;1999.90;999.90;;;-0.70;99.90;;;;;;5024942;28;20293;-48
2021/01/07 22:10:13;;;;;;;1999.90;999.90;;;-0.80;99.90;;;;;;5026192;28;20656;-50
2021/01/07 22:12:39;;;;;;;1999.90;999.90;;;-0.80;99.90;;;;;;5024485;28;20274;-48
2021/01/07 22:15:08;;;;;;;1999.90;999.90;;;-0.80;99.90;;;;;;5024907;28;20472;-51
2021/01/07 22:17:38;;;;;;;1999.90;999.90;;;-0.80;99.90;;;;;;5028065;28;20188;-49
2021/01/07 22:20:08;;;;;;;1999.90;999.90;;;-0.70;99.90;;;;;;5026311;28;20446;-49
2021/01/07 22:22:34;;;;;;;1999.90;999.90;;;-0.70;99.90;;;;;;5026276;28;20584;-52
2021/01/07 22:25:00;;;;;;;1999.90;999.90;;;-0.70;99.90;;;;;;5025748;28;21022;-50
2021/01/07 22:27:26;;;;;;;1999.90;999.90;;;-0.60;99.90;;;;;;5026199;28;20476;-51
2021/01/07 22:29:51;;;;;;;1999.90;999.90;;;-0.70;99.90;;;;;;5028846;28;20187;-51
2021/01/07 22:32:17;;;;;;;1999.90;999.90;;;-0.70;99.90;;;;;;5025100;28;20542;-50
2021/01/07 22:34:43;;;;;;;1999.90;999.90;;;-0.60;99.90;;;;;;5023986;28;20212;-48
2021/01/07 22:37:09;;;;;;;1999.90;999.90;;;-0.70;99.90;;;;;;5023778;28;21171;-49
2021/01/07 22:39:35;;;;;;;1999.90;999.90;;;-0.60;99.90;;;;;;5025398;28;20958;-48
2021/01/07 22:42:01;;;;;;;1999.90;999.90;;;-0.60;99.90;;;;;;5024215;28;20438;-51
2021/01/07 22:44:26;;;;;;;1999.90;999.90;;;-0.60;99.90;;;;;;5026914;28;20289;-50
2021/01/07 22:46:53;;;;;;;1999.90;999.90;;;-0.60;99.90;;;;;;5024825;28;20296;-50
2021/01/07 22:49:20;;;;;;;1999.90;999.90;;;-0.50;99.90;;;;;;5025823;28;20202;-49
2021/01/07 22:51:46;;;;;;;1999.90;999.90;;;-0.50;99.90;;;;;;5026819;28;20624;-48
2021/01/07 22:54:12;;;;;;;1999.90;999.90;;;-0.60;99.90;;;;;;5025632;28;20499;-50
2021/01/07 22:56:37;;;;;;;1999.90;999.90;;;-0.60;99.90;;;;;;5025101;28;20568;-48
2021/01/07 22:59:06;;;;;;;1999.90;999.90;;;-0.60;99.90;;;;;;5026976;28;20197;-49
2021/01/07 23:01:42;;;;;;;1999.90;999.90;;;-0.50;99.90;;;;;;5026117;28;20225;-48
2021/01/07 23:04:07;;;;;;;1999.90;999.90;;;-0.60;99.90;;;;;;5025808;28;20461;-52
2021/01/07 23:06:34;;;;;;;1999.90;999.90;;;-0.60;99.90;;;;;;5026092;28;20522;-49
2021/01/07 23:09:00;;;;;;;1999.90;999.90;;;-0.60;99.90;;;;;;5031681;28;20199;-49
2021/01/07 23:11:26;;;;;;;1999.90;999.90;;;-0.60;99.90;;;;;;5029697;28;20423;-48
2021/01/07 23:13:53;;;;;;;1999.90;999.90;;;-0.60;99.90;;;;;;5039342;28;20474;-49
2021/01/07 23:16:19;;;;;;;1999.90;999.90;;;-0.60;99.90;;;;;;5040195;28;20463;-48
2021/01/07 23:18:45;;;;;;;1999.90;999.90;;;-0.60;99.90;;;;;;5049165;28;20455;-47
2021/01/07 23:21:11;;;;;;;1999.90;999.90;;;-0.60;99.90;;;;;;5030823;28;20537;-51
2021/01/07 23:23:37;;;;;;;1999.90;999.90;;;-0.60;99.90;;;;;;5049123;28;20456;-52
2021/01/07 23:26:03;;;;;;;1999.90;999.90;;;-0.60;99.90;;;;;;5042888;28;20474;-49
2021/01/07 23:28:28;;;;;;;1999.90;999.90;;;-0.70;99.90;;;;;;5043348;28;20605;-49
2021/01/07 23:30:54;;;;;;;1999.90;999.90;;;-0.70;99.90;;;;;;5042351;28;20441;-48